Time;durP1;ratioP1;P1;durP2;ratioP2;P2;SDS_P1;SDS_P2;PMS_P1;PMS_P2;Temp;Humidity;BMP_temperature;BMP_pressure;BME280_temperature;BME280_humidity;BME280_pressure;Samples;Min_cycle;Max_cycle;Signal;HPM_P1;HPM_P2
2021/03/26 12:00:23;;;;;;;6.43;4.03;;;12.50;40.50;;;;;;5112345;23;20033;31
2021/03/26 12:03:00;;;;;;;6.13;4.60;;;12.50;40.80;;;;;;4882679;29;20061;-93
2021/03/26 12:06:08;;;;;;;7.75;4.35;;;12.50;40.80;;;;;;5053337;23;20114;-92
2021/03/26 12:09:17;;;;;;;6.25;3.70;;;12.50;40.50;;;;;;4971762;29;20035;-92
2021/03/26 12:11:58;;;;;;;5.47;3.30;;;12.50;40.50;;;;;;4965250;28;20098;-91
2021/03/26 12:14:53;;;;;;;4.00;3.15;;;12.60;40.50;;;;;;4944747;29;20053;-91
2021/03/26 12:17:30;;;;;;;5.55;3.33;;;12.60;40.00;;;;;;4924649;29;20542;-92
2021/03/26 12:20:04;;;;;;;5.30;3.47;;;12.60;40.30;;;;;;4948405;29;20039;-93
2021/03/26 12:22:41;;;;;;;4.38;2.92;;;12.60;40.00;;;;;;4960744;28;20104;-94
2021/03/26 12:25:17;;;;;;;5.85;3.05;;;12.60;40.10;;;;;;4976795;29;20043;-92
2021/03/26 12:27:49;;;;;;;6.20;3.35;;;12.70;39.90;;;;;;4971744;29;20040;-91
2021/03/26 12:31:02;;;;;;;;;;;;;;;;;;;;;
2021/03/26 12:34:00;;;;;;;7.55;3.17;;;12.70;40.10;;;;;;4976637;28;20059;-91
2021/03/26 12:36:55;;;;;;;4.13;3.10;;;12.70;39.60;;;;;;4972710;29;20102;-91
2021/03/26 12:39:44;;;;;;;3.50;3.20;;;12.80;39.80;;;;;;4938267;29;20066;-92
2021/03/26 12:46:00;;;;;;;5.90;3.78;;;12.80;40.40;;;;;;4964000;29;20054;-92
2021/03/26 12:49:04;;;;;;;6.20;3.85;;;12.70;40.40;;;;;;4880597;28;20041;-91
2021/03/26 12:51:38;;;;;;;4.70;3.70;;;12.80;40.70;;;;;;4961074;29;20086;-91
2021/03/26 12:54:22;;;;;;;;;;;13.00;40.90;;;;;;4958758;29;20039;-92
2021/03/26 12:57:04;;;;;;;5.28;3.67;;;13.10;40.10;;;;;;4945721;29;19906;-91
2021/03/26 12:59:46;;;;;;;5.70;4.15;;;13.20;40.40;;;;;;4966334;28;20591;-92
2021/03/26 13:02:25;;;;;;;6.28;4.00;;;13.30;40.30;;;;;;4950051;29;20047;-92
2021/03/26 13:05:15;;;;;;;4.40;3.60;;;13.40;40.30;;;;;;4960643;29;20068;-93
2021/03/26 13:08:27;;;;;;;5.63;4.10;;;13.50;39.60;;;;;;4951249;29;20043;-92
2021/03/26 13:11:36;;;;;;;9.23;4.68;;;13.70;40.40;;;;;;4949888;29;20486;-91
2021/03/26 13:14:38;;;;;;;6.88;5.22;;;13.90;40.00;;;;;;4933116;29;20043;-91
2021/03/26 13:17:57;;;;;;;;;;;;;;;;;;;;;
2021/03/26 13:24:19;;;;;;;;;;;;;;;;;;;;;
2021/03/26 13:26:49;;;;;;;7.30;4.63;;;15.50;38.70;;;;;;4972660;28;20103;-91
2021/03/26 13:29:54;;;;;;;8.40;6.07;;;15.80;39.10;;;;;;4961931;28;20035;-92
2021/03/26 13:32:32;;;;;;;6.68;4.93;;;16.00;37.20;;;;;;4961552;28;20065;-92
2021/03/26 13:35:06;;;;;;;8.30;5.40;;;16.20;37.70;;;;;;4961754;28;20086;-91
2021/03/26 13:37:54;;;;;;;9.48;5.72;;;16.30;36.70;;;;;;4956539;29;20055;-94
2021/03/26 13:40:38;;;;;;;9.90;6.07;;;16.40;36.00;;;;;;4942505;29;20403;-91
2021/03/26 13:43:17;;;;;;;6.78;6.07;;;16.60;35.60;;;;;;4940480;29;20035;-91
2021/03/26 13:45:57;;;;;;;6.90;6.07;;;16.90;36.10;;;;;;4939929;29;20034;-93
2021/03/26 13:48:33;;;;;;;8.07;6.22;;;17.10;34.30;;;;;;4940390;29;20552;-94
2021/03/26 13:51:06;;;;;;;7.20;6.05;;;17.20;34.70;;;;;;4939616;29;20054;-93
2021/03/26 13:56:53;;;;;;;6.95;5.28;;;17.30;33.70;;;;;;5740592;23;20118;-92
2021/03/26 14:00:03;;;;;;;8.00;5.45;;;17.40;34.40;;;;;;4961079;29;20059;-92
2021/03/26 15:52:07;;;;;;;;;;;;;;;;;;;;;
2021/03/26 15:59:08;;;;;;;;;;;;;;;;;;;;;
2021/03/26 16:05:40;;;;;;;6.55;5.38;;;12.60;42.30;;;;;;4791804;29;20043;-91
2021/03/26 16:19:26;;;;;;;;;;;;;;;;;;;;;
2021/03/26 16:22:43;;;;;;;;;;;;;;;;;;;;;
